Time;durP1;ratioP1;P1;durP2;ratioP2;P2;SDS_P1;SDS_P2;PMS_P1;PMS_P2;Temp;Humidity;BMP_temperature;BMP_pressure;BME280_temperature;BME280_humidity;BME280_pressure;Samples;Min_cycle;Max_cycle;Signal;HPM_P1;HPM_P2
2023/02/04 00:01:33;;;;;;;5.53;4.00;;;11.50;74.90;;;;;;5030939;28;20641;-62
2023/02/04 00:03:58;;;;;;;5.23;4.20;;;11.50;74.20;;;;;;5031158;28;20247;-63
2023/02/04 00:06:24;;;;;;;6.50;4.27;;;11.40;74.70;;;;;;5025648;28;20440;-62
2023/02/04 00:08:50;;;;;;;4.53;4.13;;;11.50;75.10;;;;;;5026458;28;20190;-62
2023/02/04 00:11:16;;;;;;;8.30;4.00;;;11.50;75.50;;;;;;5024711;28;20190;-63
2023/02/04 00:13:41;;;;;;;5.90;4.27;;;11.60;75.20;;;;;;5030665;28;20436;-62
2023/02/04 00:16:07;;;;;;;4.90;4.53;;;11.50;75.90;;;;;;5030298;28;20197;-62
2023/02/04 00:18:32;;;;;;;4.33;3.93;;;11.60;76.50;;;;;;5031166;28;20186;-62
2023/02/04 00:20:58;;;;;;;4.10;3.80;;;11.50;76.60;;;;;;5028695;28;20617;-62
2023/02/04 00:23:24;;;;;;;4.10;3.80;;;11.50;77.20;;;;;;5030866;28;20571;-62
2023/02/04 00:25:49;;;;;;;4.10;3.70;;;11.50;77.40;;;;;;5017734;28;20208;-62
2023/02/04 00:28:15;;;;;;;3.73;3.43;;;11.50;77.50;;;;;;5030615;28;20652;-62
2023/02/04 00:30:40;;;;;;;4.33;3.93;;;11.50;77.40;;;;;;5029620;28;20292;-62
2023/02/04 00:33:06;;;;;;;3.60;3.20;;;11.60;76.50;;;;;;5027107;28;20205;-62
2023/02/04 00:35:32;;;;;;;3.10;2.80;;;11.40;77.10;;;;;;5021848;28;20259;-62
2023/02/04 00:37:58;;;;;;;4.43;3.73;;;11.40;77.90;;;;;;5038107;28;20428;-62
2023/02/04 00:40:24;;;;;;;4.87;4.40;;;11.60;76.70;;;;;;5033088;28;20608;-62
2023/02/04 00:42:49;;;;;;;4.40;4.00;;;11.70;76.30;;;;;;5027853;28;20265;-62
2023/02/04 00:45:15;;;;;;;8.67;3.93;;;11.70;75.40;;;;;;5030501;28;20224;-63
2023/02/04 00:47:40;;;;;;;4.20;3.60;;;11.50;75.30;;;;;;5036316;28;20212;-62
2023/02/04 00:50:06;;;;;;;4.47;4.07;;;11.60;76.00;;;;;;5032507;28;20247;-62
2023/02/04 00:52:32;;;;;;;3.40;3.10;;;11.70;75.30;;;;;;5031221;28;20197;-62
2023/02/04 00:54:57;;;;;;;4.00;3.20;;;11.80;74.40;;;;;;5034014;28;20178;-62
2023/02/04 00:57:23;;;;;;;3.53;3.23;;;11.80;73.10;;;;;;5032700;28;20197;-62
2023/02/04 00:59:49;;;;;;;3.20;2.90;;;11.80;73.60;;;;;;5032638;28;20199;-62
2023/02/04 01:02:15;;;;;;;4.90;4.10;;;11.90;72.60;;;;;;5032266;28;20196;-62
2023/02/04 01:04:40;;;;;;;3.47;2.90;;;11.90;72.50;;;;;;5029837;28;20229;-62
2023/02/04 01:07:06;;;;;;;7.70;2.97;;;11.80;72.30;;;;;;5022399;28;20440;-62
2023/02/04 01:09:32;;;;;;;3.50;3.23;;;11.80;72.20;;;;;;5028564;28;20201;-62
2023/02/04 01:11:58;;;;;;;5.43;3.30;;;11.90;72.30;;;;;;5030735;28;20189;-62
2023/02/04 01:14:23;;;;;;;3.63;3.17;;;11.90;71.70;;;;;;5028645;28;20447;-62
2023/02/04 01:16:49;;;;;;;3.37;3.07;;;11.90;71.50;;;;;;5026947;28;20225;-62
2023/02/04 01:19:15;;;;;;;3.77;3.40;;;12.00;71.60;;;;;;5027131;28;20285;-62
2023/02/04 01:21:40;;;;;;;4.07;2.87;;;12.00;71.30;;;;;;5026916;28;20201;-63
2023/02/04 01:24:06;;;;;;;3.97;3.13;;;12.00;71.20;;;;;;5029789;28;20236;-62
2023/02/04 01:26:32;;;;;;;5.23;3.47;;;12.20;70.80;;;;;;5028333;28;20617;-62
2023/02/04 01:28:57;;;;;;;3.73;2.53;;;12.10;69.70;;;;;;5026593;28;20197;-62
2023/02/04 01:31:23;;;;;;;4.23;3.30;;;12.20;69.30;;;;;;5014612;28;20604;-63
2023/02/04 01:33:49;;;;;;;2.63;2.30;;;12.30;68.90;;;;;;5025808;28;20193;-63
2023/02/04 01:36:20;;;;;;;3.70;2.77;;;12.20;68.30;;;;;;5022263;28;20240;-63
2023/02/04 01:38:46;;;;;;;4.40;3.10;;;12.30;68.40;;;;;;5024736;28;20465;-63
2023/02/04 01:41:12;;;;;;;4.10;2.40;;;12.20;68.60;;;;;;5021348;28;20489;-63
2023/02/04 01:43:38;;;;;;;2.80;2.60;;;12.20;68.60;;;;;;5021113;28;21258;-62
2023/02/04 01:46:04;;;;;;;7.00;3.03;;;12.30;68.60;;;;;;5017481;28;20207;-62
2023/02/04 01:48:30;;;;;;;5.80;2.57;;;12.20;68.20;;;;;;5021824;28;21360;-63
2023/02/04 01:51:04;;;;;;;2.70;2.40;;;12.30;68.20;;;;;;5018938;28;20432;-62
2023/02/04 01:53:31;;;;;;;4.20;2.07;;;12.30;68.20;;;;;;5031127;28;20510;-62
2023/02/04 01:55:57;;;;;;;1.87;1.60;;;12.30;67.90;;;;;;5030325;28;20431;-62
2023/02/04 01:58:22;;;;;;;2.90;1.50;;;12.20;67.90;;;;;;5030126;28;20527;-63
2023/02/04 02:00:48;;;;;;;2.20;2.00;;;12.20;68.20;;;;;;5028537;28;20204;-62
2023/02/04 02:03:14;;;;;;;2.13;1.90;;;12.30;68.10;;;;;;5025877;28;20219;-62
2023/02/04 02:05:43;;;;;;;2.27;2.07;;;12.40;68.00;;;;;;5029453;28;20189;-62
2023/02/04 02:08:10;;;;;;;3.43;2.07;;;12.40;68.00;;;;;;5024395;28;20193;-62
2023/02/04 02:10:38;;;;;;;3.50;2.10;;;12.40;67.70;;;;;;5021659;28;20436;-62
2023/02/04 02:13:05;;;;;;;4.23;2.53;;;12.50;67.90;;;;;;5024375;28;20467;-63
2023/02/04 02:15:31;;;;;;;5.30;2.40;;;12.50;68.10;;;;;;5012258;28;20449;-62
2023/02/04 02:17:57;;;;;;;2.37;2.17;;;12.60;67.60;;;;;;5025779;28;20436;-62
2023/02/04 02:20:25;;;;;;;2.53;2.10;;;12.70;67.00;;;;;;5018558;28;20505;-62
2023/02/04 02:23:15;;;;;;;3.07;2.40;;;12.80;66.40;;;;;;5027780;28;20201;-63
2023/02/04 02:25:41;;;;;;;2.93;2.13;;;12.80;66.60;;;;;;5028312;28;20459;-63
2023/02/04 02:28:11;;;;;;;8.33;2.30;;;12.80;65.90;;;;;;5027715;28;20963;-63
2023/02/04 02:30:37;;;;;;;4.90;3.00;;;12.70;66.30;;;;;;5029518;28;20304;-63
2023/02/04 02:33:03;;;;;;;2.40;2.10;;;12.50;66.70;;;;;;5026557;28;20550;-63
2023/02/04 02:35:29;;;;;;;4.50;2.50;;;12.40;67.40;;;;;;5030282;28;20197;-62
2023/02/04 02:37:55;;;;;;;2.90;1.70;;;12.20;67.60;;;;;;5028831;28;20493;-62
2023/02/04 02:40:21;;;;;;;3.63;2.30;;;12.20;67.90;;;;;;5016706;28;20235;-63
2023/02/04 02:42:50;;;;;;;3.30;2.10;;;12.20;68.20;;;;;;5023064;28;20431;-62
2023/02/04 02:45:27;;;;;;;2.70;1.90;;;12.10;68.00;;;;;;5030868;28;20213;-62
2023/02/04 02:47:56;;;;;;;3.07;2.03;;;11.90;68.00;;;;;;5030703;28;21038;-63
2023/02/04 02:50:25;;;;;;;3.23;1.90;;;11.90;69.00;;;;;;5028723;28;20476;-62
2023/02/04 02:52:52;;;;;;;7.23;2.00;;;12.00;68.30;;;;;;5029532;28;20475;-62
2023/02/04 02:55:20;;;;;;;4.03;2.50;;;12.00;67.90;;;;;;5028851;28;20436;-63
2023/02/04 02:57:48;;;;;;;9.10;2.17;;;12.20;67.20;;;;;;5023885;28;20448;-63
2023/02/04 03:00:14;;;;;;;3.90;2.50;;;12.20;66.40;;;;;;5027349;28;20861;-63
2023/02/04 03:02:39;;;;;;;3.17;1.87;;;12.10;67.10;;;;;;5028489;28;20444;-62
2023/02/04 03:05:05;;;;;;;4.87;2.07;;;12.10;67.70;;;;;;5028344;28;20998;-63
2023/02/04 03:07:31;;;;;;;2.13;1.93;;;12.20;68.00;;;;;;5030299;28;20272;-63
2023/02/04 03:09:57;;;;;;;12.57;2.73;;;12.10;67.90;;;;;;5030074;28;20243;-62
2023/02/04 03:12:23;;;;;;;3.17;1.80;;;12.10;67.90;;;;;;5023652;28;20444;-63
2023/02/04 03:14:48;;;;;;;3.90;2.20;;;12.30;67.20;;;;;;5019578;28;20201;-63
2023/02/04 03:17:14;;;;;;;5.17;3.10;;;12.40;66.50;;;;;;5027993;28;20200;-63
2023/02/04 03:19:40;;;;;;;7.80;2.23;;;12.40;65.90;;;;;;5027620;28;20198;-63
2023/02/04 03:22:06;;;;;;;6.00;1.90;;;12.40;65.80;;;;;;5026083;28;20201;-63
2023/02/04 03:24:32;;;;;;;1.70;1.60;;;12.20;65.80;;;;;;5027886;28;20496;-63
2023/02/04 03:26:58;;;;;;;3.73;2.20;;;12.40;65.50;;;;;;5024580;28;20446;-63
2023/02/04 03:29:24;;;;;;;5.83;2.53;;;12.50;64.90;;;;;;5027909;28;20850;-63
2023/02/04 03:31:50;;;;;;;10.20;2.43;;;12.50;64.40;;;;;;5020588;28;20473;-63
2023/02/04 03:34:16;;;;;;;4.00;2.20;;;12.70;64.00;;;;;;5025755;28;20623;-63
2023/02/04 03:36:41;;;;;;;5.33;2.30;;;12.70;63.20;;;;;;5022073;28;20615;-63
2023/02/04 03:39:07;;;;;;;5.83;2.77;;;12.70;62.80;;;;;;5019064;28;20436;-63
2023/02/04 03:41:32;;;;;;;4.23;2.33;;;12.70;62.60;;;;;;5010179;28;20194;-63
2023/02/04 03:43:58;;;;;;;8.37;2.50;;;12.60;62.40;;;;;;5025615;28;20754;-63
2023/02/04 03:46:24;;;;;;;7.97;2.83;;;12.70;62.30;;;;;;5026729;28;20280;-63
2023/02/04 03:48:50;;;;;;;3.63;2.23;;;12.60;62.20;;;;;;5023798;28;20276;-63
2023/02/04 03:51:15;;;;;;;7.90;2.53;;;12.70;61.70;;;;;;5025864;28;20526;-62
2023/02/04 03:53:41;;;;;;;9.13;2.70;;;12.70;61.40;;;;;;5030081;28;20641;-63
2023/02/04 03:56:06;;;;;;;5.30;2.23;;;12.70;61.00;;;;;;5023619;28;20202;-63
2023/02/04 03:58:32;;;;;;;9.40;2.70;;;12.70;60.80;;;;;;5027435;28;20204;-63
2023/02/04 04:00:58;;;;;;;8.33;2.60;;;12.60;61.10;;;;;;5027311;28;20209;-63
2023/02/04 04:03:23;;;;;;;5.50;2.47;;;12.60;61.20;;;;;;5028046;28;20679;-63
2023/02/04 04:05:49;;;;;;;10.63;2.97;;;12.70;61.10;;;;;;5023211;28;20209;-63
2023/02/04 04:08:14;;;;;;;4.37;2.37;;;12.60;61.20;;;;;;5018411;28;20231;-63
2023/02/04 04:10:40;;;;;;;7.90;2.30;;;12.70;61.40;;;;;;5027220;28;20569;-62
2023/02/04 04:13:05;;;;;;;8.47;3.17;;;12.60;61.50;;;;;;5026089;28;20250;-63
2023/02/04 04:15:31;;;;;;;11.13;4.20;;;12.60;61.60;;;;;;5025775;28;20190;-63
2023/02/04 04:17:57;;;;;;;4.63;2.50;;;12.70;61.70;;;;;;5027283;28;20203;-63
2023/02/04 04:20:24;;;;;;;12.73;2.80;;;12.60;61.80;;;;;;5024879;28;20201;-63
2023/02/04 04:22:50;;;;;;;7.83;2.67;;;12.50;62.10;;;;;;5028912;28;20714;-63
2023/02/04 04:25:16;;;;;;;5.30;2.20;;;12.50;62.30;;;;;;5030677;28;20483;-63
2023/02/04 04:27:41;;;;;;;5.63;2.33;;;12.50;62.30;;;;;;5028439;28;20447;-63
2023/02/04 04:30:08;;;;;;;8.70;2.80;;;12.60;62.10;;;;;;5030143;28;20197;-62
2023/02/04 04:32:33;;;;;;;4.57;1.80;;;12.50;62.20;;;;;;5030777;28;20237;-63
2023/02/04 04:34:59;;;;;;;6.97;1.87;;;12.50;62.40;;;;;;5027855;28;20432;-63
2023/02/04 04:37:25;;;;;;;5.00;2.27;;;12.50;62.70;;;;;;5020354;28;20208;-63
2023/02/04 04:39:50;;;;;;;9.70;3.03;;;12.20;63.50;;;;;;5029315;28;20323;-63
2023/02/04 04:42:16;;;;;;;4.50;2.10;;;12.20;64.20;;;;;;5033072;28;20200;-63
2023/02/04 04:44:41;;;;;;;4.83;1.73;;;12.30;64.20;;;;;;5030443;28;20229;-63
2023/02/04 04:47:07;;;;;;;4.30;2.20;;;12.20;64.60;;;;;;5033128;28;20324;-63
2023/02/04 04:49:33;;;;;;;3.30;1.80;;;12.30;64.30;;;;;;5030676;28;20936;-63
2023/02/04 04:51:58;;;;;;;6.83;2.40;;;12.40;64.50;;;;;;5029953;28;20280;-63
2023/02/04 04:54:24;;;;;;;6.33;2.23;;;12.40;64.50;;;;;;5024785;28;20205;-63
2023/02/04 04:56:49;;;;;;;6.83;2.57;;;12.40;64.40;;;;;;5031707;28;20645;-63
2023/02/04 04:59:15;;;;;;;5.80;2.33;;;12.40;64.20;;;;;;5031180;28;20202;-63
2023/02/04 05:01:40;;;;;;;5.27;2.10;;;12.30;64.60;;;;;;5028941;28;20232;-63
2023/02/04 05:04:06;;;;;;;5.67;1.70;;;12.20;64.90;;;;;;5031931;28;20229;-63
2023/02/04 05:06:32;;;;;;;6.57;2.00;;;12.10;65.60;;;;;;5031168;28;20339;-63
2023/02/04 05:08:57;;;;;;;4.27;2.00;;;12.10;65.80;;;;;;5021378;28;20837;-63
2023/02/04 05:11:23;;;;;;;5.80;2.30;;;12.20;65.80;;;;;;5030370;28;20278;-63
2023/02/04 05:13:48;;;;;;;4.37;2.03;;;12.20;65.50;;;;;;5032237;28;20197;-63
2023/02/04 05:16:15;;;;;;;6.23;2.43;;;12.10;66.00;;;;;;5032483;28;20201;-63
2023/02/04 05:18:40;;;;;;;6.37;2.30;;;12.10;66.10;;;;;;5032385;28;20656;-63
2023/02/04 05:21:07;;;;;;;3.80;2.20;;;12.20;65.80;;;;;;5045191;28;20515;-63
2023/02/04 05:23:33;;;;;;;3.50;1.90;;;12.20;65.80;;;;;;5031632;28;20190;-63
2023/02/04 05:25:59;;;;;;;6.73;2.80;;;12.30;65.90;;;;;;5031514;28;20927;-63
2023/02/04 05:28:24;;;;;;;3.73;2.20;;;12.30;65.40;;;;;;5030613;28;20260;-63
2023/02/04 05:30:50;;;;;;;5.57;2.40;;;12.10;66.00;;;;;;5031722;28;20467;-63
2023/02/04 05:33:15;;;;;;;4.77;2.17;;;12.20;65.90;;;;;;5032158;28;20190;-63
2023/02/04 05:35:41;;;;;;;4.93;2.80;;;12.10;66.00;;;;;;5031290;28;20720;-63
2023/02/04 05:38:07;;;;;;;8.43;3.00;;;12.10;66.00;;;;;;5026622;28;20213;-63
2023/02/04 05:40:32;;;;;;;7.00;2.87;;;12.20;65.80;;;;;;5028769;28;20648;-62
2023/02/04 05:42:58;;;;;;;5.63;2.47;;;12.20;65.60;;;;;;5029344;28;20594;-62
2023/02/04 05:45:23;;;;;;;3.67;2.43;;;12.20;65.50;;;;;;5028310;28;20302;-63
2023/02/04 05:47:49;;;;;;;9.30;2.80;;;12.20;65.40;;;;;;5031125;28;20197;-63
2023/02/04 05:50:15;;;;;;;4.53;2.50;;;12.20;65.40;;;;;;5030440;28;20276;-63
2023/02/04 05:52:40;;;;;;;4.17;2.80;;;12.10;65.30;;;;;;5028557;28;20276;-63
2023/02/04 05:55:07;;;;;;;6.67;3.73;;;12.10;65.60;;;;;;5030554;28;20186;-63
2023/02/04 05:57:33;;;;;;;8.90;2.60;;;11.90;66.20;;;;;;5028510;28;20205;-63
2023/02/04 05:59:58;;;;;;;4.40;2.63;;;12.00;66.00;;;;;;5027011;28;20435;-63
2023/02/04 06:02:24;;;;;;;12.20;3.67;;;12.10;65.60;;;;;;5030024;28;20965;-63
2023/02/04 06:04:49;;;;;;;14.20;4.63;;;12.20;65.10;;;;;;5030347;28;20267;-63
2023/02/04 06:07:15;;;;;;;25.67;21.30;;;12.10;65.10;;;;;;5027456;28;20605;-63
2023/02/04 06:09:40;;;;;;;8.10;5.60;;;12.20;65.40;;;;;;5029967;28;20201;-63
2023/02/04 06:12:06;;;;;;;5.17;3.60;;;12.20;65.40;;;;;;5029261;28;20201;-63
2023/02/04 06:14:32;;;;;;;7.87;3.10;;;12.30;65.00;;;;;;5021961;28;20220;-63
2023/02/04 06:16:58;;;;;;;3.53;2.60;;;12.30;64.70;;;;;;5030112;28;20190;-63
2023/02/04 06:19:24;;;;;;;8.53;3.43;;;12.20;64.60;;;;;;5026452;28;20612;-63
2023/02/04 06:21:49;;;;;;;6.63;3.13;;;12.10;65.10;;;;;;5029449;28;20486;-63
2023/02/04 06:24:15;;;;;;;8.37;2.80;;;12.20;65.10;;;;;;5028326;28;20225;-63
2023/02/04 06:26:40;;;;;;;7.73;3.17;;;12.20;64.80;;;;;;5027580;28;20802;-63
2023/02/04 06:29:06;;;;;;;6.70;3.30;;;12.20;64.60;;;;;;5029370;28;20624;-63
2023/02/04 06:31:32;;;;;;;10.30;3.60;;;12.30;64.40;;;;;;5028608;28;20236;-63
2023/02/04 06:33:57;;;;;;;4.87;3.53;;;12.30;64.40;;;;;;5025494;28;20200;-63
2023/02/04 06:36:23;;;;;;;6.03;2.90;;;12.40;64.40;;;;;;5028344;28;20236;-63
2023/02/04 06:38:48;;;;;;;8.23;3.67;;;12.30;64.30;;;;;;5028141;28;20197;-63
2023/02/04 06:41:14;;;;;;;10.57;4.13;;;12.30;64.90;;;;;;5030660;28;20220;-63
2023/02/04 06:43:39;;;;;;;5.53;3.50;;;12.30;65.50;;;;;;5026996;28;20199;-63
2023/02/04 06:46:05;;;;;;;7.53;3.47;;;12.40;65.30;;;;;;5029834;28;20189;-63
2023/02/04 06:48:30;;;;;;;6.33;3.20;;;12.50;64.80;;;;;;5029580;28;20208;-63
2023/02/04 06:50:56;;;;;;;5.10;3.53;;;12.70;64.40;;;;;;5021145;28;20602;-63
2023/02/04 06:53:21;;;;;;;8.33;3.90;;;12.70;64.10;;;;;;5024541;28;20228;-63
2023/02/04 06:55:47;;;;;;;5.17;3.13;;;12.80;63.80;;;;;;5026723;28;20193;-63
2023/02/04 06:58:13;;;;;;;7.90;3.23;;;13.00;63.60;;;;;;5030017;28;20963;-63
2023/02/04 07:00:38;;;;;;;5.23;3.27;;;13.20;63.30;;;;;;5033860;28;20192;-63
2023/02/04 07:03:06;;;;;;;6.20;3.70;;;13.30;62.50;;;;;;5029803;28;20641;-64
2023/02/04 07:05:32;;;;;;;5.90;3.43;;;13.40;61.70;;;;;;5029144;28;20248;-63
2023/02/04 07:07:57;;;;;;;5.47;3.40;;;13.50;61.20;;;;;;5035074;28;20448;-63
2023/02/04 07:10:23;;;;;;;4.87;3.10;;;13.50;60.20;;;;;;5029313;28;20456;-63
2023/02/04 07:12:48;;;;;;;5.00;3.23;;;13.50;60.00;;;;;;5031055;28;20280;-64
2023/02/04 07:15:14;;;;;;;6.73;3.57;;;13.50;60.10;;;;;;5028458;28;20189;-63
2023/02/04 07:17:40;;;;;;;6.07;3.60;;;13.60;60.10;;;;;;5028883;28;20190;-63
2023/02/04 07:20:06;;;;;;;10.90;3.87;;;13.60;59.90;;;;;;5028778;28;20197;-63
2023/02/04 07:22:32;;;;;;;5.07;3.80;;;13.60;59.90;;;;;;5029561;28;20435;-63
2023/02/04 07:24:57;;;;;;;6.17;3.53;;;13.60;59.50;;;;;;5030352;28;20471;-63
2023/02/04 07:27:23;;;;;;;3.83;2.93;;;13.50;59.40;;;;;;5029603;28;20201;-63
2023/02/04 07:29:48;;;;;;;6.50;3.93;;;13.50;59.30;;;;;;5030622;28;20212;-63
2023/02/04 07:32:14;;;;;;;7.13;3.40;;;13.50;59.50;;;;;;5029026;28;20315;-63
2023/02/04 07:34:39;;;;;;;4.70;3.40;;;13.40;59.50;;;;;;5032559;28;20202;-63
2023/02/04 07:37:05;;;;;;;5.13;3.53;;;13.40;59.60;;;;;;5028861;28;20213;-63
2023/02/04 07:39:31;;;;;;;9.53;3.50;;;13.40;59.50;;;;;;5027453;28;20669;-63
2023/02/04 07:41:56;;;;;;;5.37;4.57;;;13.40;59.50;;;;;;5025383;28;20201;-63
2023/02/04 07:44:22;;;;;;;10.03;4.77;;;13.30;59.70;;;;;;5030494;28;20231;-64
2023/02/04 07:46:47;;;;;;;6.60;3.67;;;13.30;59.90;;;;;;5026260;28;20251;-63
2023/02/04 07:49:13;;;;;;;10.10;4.30;;;13.30;60.10;;;;;;5031984;28;20642;-63
2023/02/04 07:51:38;;;;;;;6.80;3.07;;;13.30;60.20;;;;;;5030849;28;20193;-63
2023/02/04 07:54:04;;;;;;;8.00;4.10;;;13.40;60.10;;;;;;5032226;28;20193;-62
2023/02/04 07:56:29;;;;;;;7.90;3.83;;;13.50;60.00;;;;;;5020236;28;20309;-63
2023/02/04 07:58:55;;;;;;;8.57;3.93;;;13.50;59.70;;;;;;5028778;28;20220;-63
2023/02/04 08:01:21;;;;;;;9.23;3.57;;;13.60;59.70;;;;;;5030366;28;20190;-63
2023/02/04 08:03:46;;;;;;;10.07;3.90;;;13.70;59.40;;;;;;5032301;28;20220;-63
2023/02/04 08:06:12;;;;;;;7.33;3.50;;;13.70;59.30;;;;;;5031252;28;20211;-63
2023/02/04 08:08:37;;;;;;;5.13;3.20;;;13.80;59.30;;;;;;5030045;28;20204;-62
2023/02/04 08:11:03;;;;;;;5.40;3.50;;;13.80;59.30;;;;;;5031524;28;20197;-62
2023/02/04 08:13:28;;;;;;;12.37;3.87;;;13.90;59.10;;;;;;5025077;28;20297;-62
2023/02/04 08:15:54;;;;;;;9.60;4.10;;;14.00;59.20;;;;;;5025931;28;20235;-62
2023/02/04 08:18:20;;;;;;;11.07;4.33;;;14.10;58.50;;;;;;5032699;28;20212;-62
2023/02/04 08:20:45;;;;;;;5.90;3.33;;;14.10;58.20;;;;;;5040288;28;20648;-62
2023/02/04 08:23:11;;;;;;;10.57;4.17;;;14.10;58.20;;;;;;5025757;28;20649;-62
2023/02/04 08:25:37;;;;;;;10.00;4.33;;;14.10;58.30;;;;;;5026228;28;20225;-62
2023/02/04 08:28:02;;;;;;;6.20;4.00;;;14.20;58.20;;;;;;5029368;28;20246;-60
2023/02/04 08:30:28;;;;;;;10.50;4.60;;;14.20;58.10;;;;;;5026286;28;20218;-63
2023/02/04 08:32:53;;;;;;;10.53;4.50;;;14.20;58.00;;;;;;5033581;28;20207;-63
2023/02/04 08:35:19;;;;;;;9.43;4.27;;;14.20;58.00;;;;;;5030504;28;20197;-63
2023/02/04 08:37:44;;;;;;;8.43;3.30;;;14.20;58.00;;;;;;5030860;28;20219;-60
2023/02/04 08:40:10;;;;;;;7.07;4.40;;;14.20;58.00;;;;;;5037250;28;20189;-60
2023/02/04 08:42:36;;;;;;;5.73;3.50;;;14.30;58.10;;;;;;5028140;28;20224;-60
2023/02/04 08:45:02;;;;;;;7.80;3.83;;;14.30;57.90;;;;;;5028315;28;20515;-61
2023/02/04 08:47:28;;;;;;;6.53;3.93;;;14.30;57.90;;;;;;5032888;28;20190;-62
2023/02/04 08:49:54;;;;;;;7.57;3.30;;;14.40;57.90;;;;;;5031584;28;20444;-62
2023/02/04 08:52:19;;;;;;;10.60;3.40;;;14.40;57.60;;;;;;5032890;28;20197;-62
2023/02/04 08:54:45;;;;;;;13.50;3.80;;;14.40;57.30;;;;;;5028293;28;20228;-62
2023/02/04 08:57:10;;;;;;;11.80;4.37;;;14.40;57.30;;;;;;5028986;28;20201;-61
2023/02/04 08:59:36;;;;;;;7.67;3.40;;;14.40;57.10;;;;;;5024293;28;20231;-61
2023/02/04 09:02:02;;;;;;;10.90;4.27;;;14.30;57.10;;;;;;5029356;28;20204;-61
2023/02/04 09:04:28;;;;;;;11.83;4.23;;;14.30;57.30;;;;;;5031115;28;20221;-61
2023/02/04 09:06:54;;;;;;;6.87;4.30;;;14.30;57.30;;;;;;5029014;28;20551;-61
2023/02/04 09:09:20;;;;;;;8.40;4.30;;;14.30;57.30;;;;;;5029700;28;20982;-61
2023/02/04 09:11:46;;;;;;;6.60;3.77;;;14.40;57.30;;;;;;5026986;28;20448;-61
2023/02/04 09:14:12;;;;;;;12.13;5.00;;;14.40;57.10;;;;;;5025309;28;20502;-61
2023/02/04 09:16:38;;;;;;;11.57;4.50;;;14.40;57.10;;;;;;5028702;28;20316;-61
2023/02/04 09:19:04;;;;;;;8.63;4.67;;;14.30;56.60;;;;;;5032284;28;20853;-61
2023/02/04 09:21:30;;;;;;;11.20;3.73;;;14.20;56.60;;;;;;5032042;28;20641;-61
2023/02/04 09:23:56;;;;;;;7.60;3.50;;;14.20;56.40;;;;;;5030761;28;20484;-61
2023/02/04 09:26:21;;;;;;;12.00;4.77;;;14.20;56.10;;;;;;5030964;28;20436;-61
2023/02/04 09:28:47;;;;;;;6.10;3.70;;;14.20;56.30;;;;;;5021626;28;20194;-61
2023/02/04 09:31:13;;;;;;;13.03;4.23;;;14.20;56.20;;;;;;5031091;28;20229;-61
2023/02/04 09:33:39;;;;;;;10.63;3.47;;;14.30;56.80;;;;;;5031514;28;20427;-61
2023/02/04 09:36:05;;;;;;;14.17;5.13;;;14.30;56.10;;;;;;5031711;28;20431;-61
2023/02/04 09:38:31;;;;;;;14.83;4.00;;;14.30;55.00;;;;;;5032328;28;20197;-62
2023/02/04 09:41:03;;;;;;;7.40;3.90;;;14.20;54.50;;;;;;5031146;28;20296;-61
2023/02/04 09:43:37;;;;;;;8.80;3.07;;;14.20;54.20;;;;;;5031786;28;20193;-61
2023/02/04 09:46:03;;;;;;;5.90;3.07;;;14.20;54.50;;;;;;5034259;28;20492;-62
2023/02/04 09:48:29;;;;;;;6.83;4.23;;;14.30;54.30;;;;;;5035304;28;20515;-61
2023/02/04 09:51:04;;;;;;;9.63;3.30;;;14.30;53.70;;;;;;5031009;28;20514;-61
2023/02/04 09:53:31;;;;;;;10.90;3.17;;;14.20;53.50;;;;;;5031364;28;20189;-62
2023/02/04 09:55:56;;;;;;;6.10;2.73;;;14.30;53.70;;;;;;5030807;28;20442;-62
2023/02/04 09:58:25;;;;;;;8.13;2.83;;;14.50;53.10;;;;;;5030615;28;20883;-62
2023/02/04 10:01:15;;;;;;;9.13;3.10;;;14.60;52.80;;;;;;5031277;28;20530;-61
2023/02/04 10:03:45;;;;;;;9.37;2.40;;;14.70;51.60;;;;;;5038526;28;20433;-62
2023/02/04 10:06:22;;;;;;;10.47;2.47;;;14.70;50.50;;;;;;5035594;28;20576;-61
2023/02/04 10:08:50;;;;;;;8.30;3.00;;;14.70;50.30;;;;;;5040680;28;20419;-61
2023/02/04 10:11:17;;;;;;;5.27;2.67;;;14.70;50.50;;;;;;5030842;28;20437;-62
2023/02/04 10:13:52;;;;;;;6.00;2.33;;;14.60;50.30;;;;;;5030939;28;20478;-61
2023/02/04 10:16:30;;;;;;;11.57;2.63;;;14.40;49.20;;;;;;5030286;28;20790;-61
2023/02/04 10:19:06;;;;;;;8.77;2.00;;;14.30;49.40;;;;;;5024753;28;20939;-62
2023/02/04 10:21:35;;;;;;;9.67;2.80;;;14.20;49.30;;;;;;5031552;28;20459;-61
2023/02/04 10:24:04;;;;;;;9.03;3.60;;;14.10;48.70;;;;;;5023473;28;20522;-62
2023/02/04 10:26:31;;;;;;;10.10;3.57;;;14.00;49.40;;;;;;5030695;28;20489;-61
2023/02/04 10:28:58;;;;;;;9.97;3.63;;;14.10;50.50;;;;;;5042733;28;20872;-61
2023/02/04 10:31:36;;;;;;;9.47;3.20;;;14.20;51.10;;;;;;5030439;28;20472;-61
2023/02/04 10:34:21;;;;;;;5.97;2.77;;;14.30;50.70;;;;;;5028941;28;20882;-61
2023/02/04 10:36:49;;;;;;;7.43;3.00;;;14.20;50.50;;;;;;5030902;28;20428;-61
2023/02/04 10:39:26;;;;;;;10.27;3.17;;;14.30;50.60;;;;;;5033401;28;20862;-61
2023/02/04 10:41:54;;;;;;;11.10;3.23;;;14.30;50.50;;;;;;5026818;28;20451;-62
2023/02/04 10:44:28;;;;;;;7.83;3.20;;;14.40;50.70;;;;;;5035746;28;20498;-62
2023/02/04 10:47:20;;;;;;;11.20;2.77;;;14.40;50.90;;;;;;5032889;28;20432;-62
2023/02/04 10:50:17;;;;;;;10.00;2.47;;;14.40;50.50;;;;;;5025467;28;20451;-63
2023/02/04 10:52:46;;;;;;;10.47;3.30;;;14.30;50.20;;;;;;5025044;28;20440;-63
2023/02/04 10:55:20;;;;;;;10.00;3.37;;;14.40;50.50;;;;;;5021538;28;20950;-63
2023/02/04 10:57:49;;;;;;;10.10;3.03;;;14.40;50.80;;;;;;5020869;28;20472;-63
2023/02/04 11:00:20;;;;;;;13.43;3.33;;;14.40;50.80;;;;;;5025041;28;20455;-63
2023/02/04 11:03:00;;;;;;;12.70;3.60;;;14.50;51.20;;;;;;5026834;28;20452;-63
2023/02/04 11:05:31;;;;;;;9.60;3.40;;;14.40;50.50;;;;;;5027373;28;20570;-63
2023/02/04 11:07:57;;;;;;;7.57;3.20;;;14.30;50.40;;;;;;5028267;28;20440;-63
2023/02/04 11:10:28;;;;;;;5.30;2.97;;;14.30;50.30;;;;;;5026427;28;20889;-63
2023/02/04 11:12:54;;;;;;;8.27;2.80;;;14.20;50.40;;;;;;5030820;28;20428;-63
2023/02/04 11:15:38;;;;;;;8.87;3.40;;;14.10;50.40;;;;;;5027037;28;20451;-63
2023/02/04 11:18:11;;;;;;;10.77;3.57;;;14.30;50.40;;;;;;5030152;28;20193;-63
2023/02/04 11:20:38;;;;;;;10.07;3.47;;;14.20;50.40;;;;;;5025788;28;20446;-63
2023/02/04 11:23:14;;;;;;;9.90;2.50;;;14.30;50.20;;;;;;5031497;28;20456;-63
2023/02/04 11:25:40;;;;;;;11.80;3.00;;;14.40;51.00;;;;;;5027413;28;20483;-64
2023/02/04 11:28:23;;;;;;;11.40;3.70;;;14.50;50.30;;;;;;5036123;28;20784;-63
2023/02/04 11:30:59;;;;;;;13.63;3.43;;;14.70;50.20;;;;;;5029053;28;20243;-63
2023/02/04 11:33:24;;;;;;;9.10;3.87;;;14.50;49.80;;;;;;5033007;28;20480;-63
2023/02/04 11:36:01;;;;;;;12.43;3.83;;;14.50;50.10;;;;;;5029554;28;20936;-63
2023/02/04 11:38:29;;;;;;;13.30;3.13;;;14.60;50.30;;;;;;5032406;28;20203;-64
2023/02/04 11:40:59;;;;;;;7.70;2.73;;;14.80;50.10;;;;;;5028108;28;20459;-63
2023/02/04 11:43:25;;;;;;;11.63;3.43;;;14.80;49.90;;;;;;5030624;28;20493;-63
2023/02/04 11:49:25;;;;;;;11.57;3.17;;;15.00;48.90;;;;;;5094332;22;20524;-57
2023/02/04 11:52:07;;;;;;;13.17;3.27;;;15.00;48.80;;;;;;4987230;28;20438;-56
2023/02/04 11:54:34;;;;;;;13.53;4.00;;;15.10;48.80;;;;;;4988189;28;20469;-56
2023/02/04 11:57:00;;;;;;;9.40;3.00;;;15.00;49.10;;;;;;4988912;28;20806;-56
2023/02/04 11:59:26;;;;;;;12.00;2.77;;;15.00;47.90;;;;;;4991798;28;20429;-56
2023/02/04 12:02:03;;;;;;;8.50;2.63;;;15.00;47.70;;;;;;4992495;28;20453;-56
2023/02/04 12:04:28;;;;;;;7.60;2.97;;;15.00;47.30;;;;;;4988002;28;21005;-56
2023/02/04 12:07:02;;;;;;;7.83;2.77;;;15.00;47.20;;;;;;4987314;28;20449;-56
2023/02/04 12:09:30;;;;;;;8.57;2.30;;;15.00;46.70;;;;;;4991251;28;20202;-56
2023/02/04 12:11:58;;;;;;;7.20;2.30;;;14.90;46.30;;;;;;4992670;28;20925;-56
2023/02/04 12:14:38;;;;;;;8.13;3.07;;;14.80;46.70;;;;;;4991474;28;20818;-56
2023/02/04 12:17:18;;;;;;;7.77;2.40;;;14.90;47.20;;;;;;4992820;28;20457;-56
2023/02/04 12:19:43;;;;;;;8.10;3.80;;;15.00;47.40;;;;;;4992374;28;20465;-56
2023/02/04 12:22:09;;;;;;;7.53;2.20;;;14.90;46.70;;;;;;4992760;28;20454;-56
2023/02/04 12:24:34;;;;;;;4.70;2.10;;;15.00;47.30;;;;;;4992787;28;20805;-56
2023/02/04 12:27:00;;;;;;;11.50;2.57;;;15.10;46.50;;;;;;4991844;28;20248;-56
2023/02/04 12:29:26;;;;;;;10.83;3.97;;;15.20;45.90;;;;;;4993894;28;21932;-56
2023/02/04 12:31:51;;;;;;;8.80;2.60;;;15.20;45.90;;;;;;4993943;28;20214;-56
2023/02/04 12:34:17;;;;;;;6.00;2.60;;;15.20;46.10;;;;;;4994114;28;20197;-57
2023/02/04 12:36:43;;;;;;;9.47;2.70;;;15.20;46.10;;;;;;4995555;28;20604;-56
2023/02/04 12:39:09;;;;;;;12.50;2.97;;;15.20;46.50;;;;;;4990537;28;20202;-57
2023/02/04 12:41:35;;;;;;;9.17;3.03;;;15.20;46.70;;;;;;4995795;28;20554;-57
2023/02/04 12:44:01;;;;;;;9.20;2.90;;;15.10;47.00;;;;;;4988807;28;20526;-57
2023/02/04 12:46:28;;;;;;;10.63;2.90;;;15.10;47.60;;;;;;4998120;28;20449;-55
2023/02/04 12:48:54;;;;;;;6.57;2.70;;;15.00;47.90;;;;;;4992389;28;20856;-58